Time;durP1;ratioP1;P1;durP2;ratioP2;P2;SDS_P1;SDS_P2;PMS_P1;PMS_P2;Temp;Humidity;BMP_temperature;BMP_pressure;BME280_temperature;BME280_humidity;BME280_pressure;Samples;Min_cycle;Max_cycle;Signal;HPM_P1;HPM_P2
2021/05/15 00:02:10;;;;;;;5.68;3.67;;;410.00;2227.20;;;;;;5094966;28;20031;-70
2021/05/15 00:04:36;;;;;;;6.03;3.22;;;410.00;2252.80;;;;;;5095147;28;20472;-70
2021/05/15 00:07:02;;;;;;;5.88;3.47;;;410.00;2252.80;;;;;;5094838;28;20026;-70
2021/05/15 00:09:28;;;;;;;8.23;3.88;;;410.00;2252.80;;;;;;5094631;28;20047;-70
2021/05/15 00:11:54;;;;;;;8.32;3.80;;;409.80;2304.00;;;;;;5093499;28;20028;-70
2021/05/15 00:14:20;;;;;;;13.00;4.78;;;409.90;2278.40;;;;;;5094590;28;20081;-70
2021/05/15 00:16:46;;;;;;;9.57;3.88;;;409.90;2278.40;;;;;;5093289;28;20024;-70
2021/05/15 00:19:12;;;;;;;7.53;3.42;;;410.00;2252.80;;;;;;5093609;28;20060;-69
2021/05/15 00:21:39;;;;;;;6.60;4.32;;;410.00;2252.80;;;;;;5093190;28;20503;-69
2021/05/15 00:24:05;;;;;;;5.57;3.90;;;409.90;2278.40;;;;;;5093215;28;20431;-71
2021/05/15 00:26:31;;;;;;;4.90;3.45;;;410.00;2252.80;;;;;;5094380;28;20414;-69
2021/05/15 00:28:57;;;;;;;10.85;4.32;;;410.00;2252.80;;;;;;5094400;28;20030;-70
2021/05/15 00:31:23;;;;;;;9.43;4.00;;;409.90;2252.80;;;;;;5094418;28;20032;-70
2021/05/15 00:33:48;;;;;;;6.82;3.55;;;409.90;2252.80;;;;;;5094544;28;20031;-71
2021/05/15 00:36:14;;;;;;;6.60;4.38;;;410.00;2227.20;;;;;;5094562;28;20016;-71
2021/05/15 00:38:40;;;;;;;7.97;4.82;;;409.90;2227.20;;;;;;5092966;28;20031;-71
2021/05/15 00:41:06;;;;;;;8.73;4.68;;;409.90;2252.80;;;;;;5094342;28;20020;-69
2021/05/15 00:43:32;;;;;;;6.47;4.57;;;409.90;2252.80;;;;;;5094273;28;20027;-69
2021/05/15 00:45:58;;;;;;;6.38;3.90;;;409.80;2252.80;;;;;;5094297;28;20017;-71
2021/05/15 00:48:24;;;;;;;6.00;3.90;;;409.70;2278.40;;;;;;5094301;28;20032;-70
2021/05/15 00:50:51;;;;;;;5.72;3.97;;;409.80;2252.80;;;;;;5094140;28;20376;-70
2021/05/15 00:53:20;;;;;;;6.53;3.53;;;409.70;2252.80;;;;;;5094148;28;20020;-70
2021/05/15 00:55:46;;;;;;;6.32;3.80;;;409.70;2252.80;;;;;;5094153;28;20020;-70
2021/05/15 00:58:13;;;;;;;6.60;3.80;;;409.60;2252.80;;;;;;5093974;28;20136;-70
2021/05/15 01:00:39;;;;;;;6.32;3.63;;;409.70;2252.80;;;;;;5094018;28;20034;-70
2021/05/15 01:03:07;;;;;;;8.93;4.57;;;409.60;2252.80;;;;;;5094009;28;20052;-69
2021/05/15 01:05:33;;;;;;;7.97;4.57;;;409.70;2252.80;;;;;;5093809;28;20013;-70
2021/05/15 01:07:59;;;;;;;8.45;4.85;;;409.70;2252.80;;;;;;5093820;28;20039;-69
2021/05/15 01:10:25;;;;;;;8.43;4.70;;;409.70;2252.80;;;;;;5093941;28;20016;-69
2021/05/15 01:12:54;;;;;;;6.30;4.40;;;409.80;2252.80;;;;;;5093849;28;20103;-69
2021/05/15 01:15:22;;;;;;;6.15;4.30;;;409.70;2252.80;;;;;;5093673;28;20127;-69
2021/05/15 01:17:53;;;;;;;8.20;4.40;;;384.80;2278.40;;;;;;5093574;28;20712;-69
2021/05/15 01:20:21;;;;;;;6.70;4.03;;;384.90;2252.80;;;;;;5094310;28;20453;-69
2021/05/15 01:22:47;;;;;;;6.53;4.10;;;409.60;2278.40;;;;;;5093758;28;20099;-69
2021/05/15 01:25:14;;;;;;;5.00;3.70;;;409.60;2278.40;;;;;;5094309;28;20019;-69
2021/05/15 01:27:40;;;;;;;6.68;4.20;;;409.60;2252.80;;;;;;5094445;28;20024;-69
2021/05/15 01:30:08;;;;;;;5.65;4.18;;;384.90;2252.80;;;;;;5093696;28;20338;-69
2021/05/15 01:32:36;;;;;;;8.75;4.28;;;384.90;2252.80;;;;;;5092343;28;20032;-69
2021/05/15 01:35:04;;;;;;;5.25;4.07;;;409.60;2278.40;;;;;;5093681;28;20375;-69
2021/05/15 01:37:30;;;;;;;8.95;5.05;;;409.60;2278.40;;;;;;5093473;28;20522;-69
2021/05/15 01:39:56;;;;;;;8.88;5.82;;;384.90;2252.80;;;;;;5093418;28;20028;-69
2021/05/15 01:42:22;;;;;;;15.57;12.73;;;384.90;2252.80;;;;;;5093420;28;20361;-69
2021/05/15 01:44:48;;;;;;;14.23;11.35;;;384.90;2252.80;;;;;;5093454;28;20099;-70
2021/05/15 01:47:14;;;;;;;9.40;5.80;;;384.80;2252.80;;;;;;5093398;28;20056;-69
2021/05/15 01:49:40;;;;;;;10.73;7.20;;;384.70;2227.20;;;;;;5093556;28;20031;-69
2021/05/15 01:52:06;;;;;;;9.82;8.00;;;384.80;2252.80;;;;;;5093290;28;20032;-69
2021/05/15 01:54:32;;;;;;;11.88;6.90;;;384.80;2252.80;;;;;;5093256;28;20035;-69
2021/05/15 01:56:58;;;;;;;10.30;5.68;;;384.80;2252.80;;;;;;5093179;28;20024;-69
2021/05/15 01:59:24;;;;;;;9.57;5.78;;;384.80;2252.80;;;;;;5093206;28;20024;-70
2021/05/15 02:01:50;;;;;;;9.23;5.88;;;384.80;2252.80;;;;;;5093334;28;20024;-69
2021/05/15 02:04:16;;;;;;;10.38;5.95;;;384.70;2252.80;;;;;;5093322;28;20521;-69
2021/05/15 02:06:42;;;;;;;7.47;5.72;;;384.70;2252.80;;;;;;5093224;28;20082;-69
2021/05/15 02:09:07;;;;;;;11.10;6.55;;;384.80;2252.80;;;;;;5093492;28;20035;-70
2021/05/15 02:11:34;;;;;;;11.25;7.03;;;384.70;2252.80;;;;;;5093154;28;20538;-70
2021/05/15 02:14:00;;;;;;;10.15;6.63;;;384.70;2252.80;;;;;;5092973;28;20048;-70
2021/05/15 02:16:26;;;;;;;11.10;6.75;;;384.70;2252.80;;;;;;5093031;28;20027;-70
2021/05/15 02:18:52;;;;;;;9.18;6.32;;;384.70;2278.40;;;;;;5093248;28;20036;-70
2021/05/15 02:21:18;;;;;;;14.18;6.03;;;384.70;2252.80;;;;;;5093368;28;20376;-70
2021/05/15 02:23:44;;;;;;;8.00;6.45;;;384.50;2278.40;;;;;;5093067;28;20077;-70
2021/05/15 02:26:11;;;;;;;16.13;9.38;;;384.60;2252.80;;;;;;5093033;28;20028;-70
2021/05/15 02:28:36;;;;;;;14.52;8.43;;;384.60;2227.20;;;;;;5093036;28;20031;-70
2021/05/15 02:31:02;;;;;;;16.42;9.00;;;384.60;2227.20;;;;;;5091823;28;20024;-70
2021/05/15 02:33:28;;;;;;;13.15;8.13;;;384.60;2252.80;;;;;;5092921;28;20028;-70
2021/05/15 02:35:54;;;;;;;10.98;7.38;;;384.50;2252.80;;;;;;5093164;28;20024;-70
2021/05/15 02:38:21;;;;;;;13.23;7.30;;;384.50;2252.80;;;;;;5092520;28;20069;-70
2021/05/15 02:40:47;;;;;;;11.98;7.15;;;384.50;2252.80;;;;;;5092954;28;20024;-70
2021/05/15 02:43:14;;;;;;;12.82;6.68;;;384.50;2252.80;;;;;;5094201;28;20472;-70
2021/05/15 02:45:40;;;;;;;10.57;6.75;;;384.50;2252.80;;;;;;5096464;28;20070;-70
2021/05/15 02:48:07;;;;;;;11.02;7.10;;;384.50;2252.80;;;;;;5096399;28;20024;-70
2021/05/15 02:50:33;;;;;;;8.88;7.18;;;384.50;2227.20;;;;;;5096352;28;20069;-69
2021/05/15 02:52:59;;;;;;;11.63;7.03;;;384.50;2227.20;;;;;;5096268;28;20098;-69
2021/05/15 02:55:25;;;;;;;9.90;5.65;;;384.50;2252.80;;;;;;5094986;28;20099;-69
2021/05/15 02:57:53;;;;;;;9.90;6.25;;;384.50;2227.20;;;;;;5096179;28;20032;-69
2021/05/15 03:00:23;;;;;;;10.27;5.72;;;384.50;2227.20;;;;;;5096127;28;20058;-69
2021/05/15 03:02:49;;;;;;;6.97;6.20;;;384.50;2227.20;;;;;;5096116;28;20035;-69
2021/05/15 03:05:17;;;;;;;11.23;6.50;;;384.50;2227.20;;;;;;5096145;28;20016;-69
2021/05/15 03:07:43;;;;;;;9.18;6.18;;;384.50;2227.20;;;;;;5096040;28;20024;-69
2021/05/15 03:10:11;;;;;;;11.80;5.97;;;384.50;2227.20;;;;;;5096581;28;20035;-69
2021/05/15 03:12:38;;;;;;;8.95;5.50;;;384.50;2201.60;;;;;;5095915;28;20379;-69
2021/05/15 03:15:11;;;;;;;11.00;6.50;;;384.40;2201.60;;;;;;5094415;28;20076;-69
2021/05/15 03:17:38;;;;;;;9.68;6.47;;;384.30;2227.20;;;;;;5095834;28;20042;-70
2021/05/15 03:20:07;;;;;;;9.18;5.80;;;384.30;2252.80;;;;;;5095778;28;20031;-71
2021/05/15 03:22:33;;;;;;;10.98;6.28;;;384.30;2252.80;;;;;;5095705;28;20085;-70
2021/05/15 03:24:59;;;;;;;11.15;5.78;;;384.30;2227.20;;;;;;5095647;28;20020;-70
2021/05/15 03:27:25;;;;;;;14.90;6.15;;;384.30;2252.80;;;;;;5094307;28;20120;-70
2021/05/15 03:29:51;;;;;;;10.65;5.85;;;384.40;2227.20;;;;;;5095872;28;20016;-70
2021/05/15 03:32:17;;;;;;;14.85;6.63;;;384.30;2227.20;;;;;;5095490;28;20024;-70
2021/05/15 03:34:44;;;;;;;12.30;6.47;;;384.30;2227.20;;;;;;5095539;28;20069;-70
2021/05/15 03:37:09;;;;;;;19.17;7.55;;;384.10;2252.80;;;;;;5095352;28;20084;-70
2021/05/15 03:39:35;;;;;;;14.40;6.55;;;384.10;2252.80;;;;;;5095652;28;20099;-70
2021/05/15 03:42:01;;;;;;;9.70;5.97;;;384.20;2227.20;;;;;;5095358;28;20024;-71
2021/05/15 03:44:27;;;;;;;9.05;6.35;;;384.20;2252.80;;;;;;5095550;28;20016;-71
2021/05/15 03:46:53;;;;;;;11.48;6.72;;;384.10;2252.80;;;;;;5095192;28;20372;-70
2021/05/15 03:49:19;;;;;;;9.02;6.50;;;359.30;2278.40;;;;;;5095470;28;20024;-70
2021/05/15 03:51:45;;;;;;;13.63;7.00;;;359.20;2278.40;;;;;;5095228;28;20028;-70
2021/05/15 03:54:11;;;;;;;7.90;6.30;;;359.30;2278.40;;;;;;5094927;28;20032;-70
2021/05/15 03:56:37;;;;;;;10.52;6.15;;;384.00;2252.80;;;;;;5095080;28;20412;-70
2021/05/15 03:59:04;;;;;;;10.07;6.22;;;359.30;2252.80;;;;;;5095001;28;20056;-70
2021/05/15 04:01:30;;;;;;;8.02;6.07;;;384.00;2252.80;;;;;;5095190;28;20054;-70
2021/05/15 04:03:56;;;;;;;7.35;6.45;;;384.00;2252.80;;;;;;5095204;28;20024;-70
2021/05/15 04:06:22;;;;;;;7.45;6.60;;;384.00;2278.40;;;;;;5094888;28;20032;-70
2021/05/15 04:08:48;;;;;;;10.23;7.15;;;384.10;2252.80;;;;;;5094901;28;20034;-70
2021/05/15 04:11:14;;;;;;;11.50;7.13;;;384.10;2252.80;;;;;;5094798;28;20028;-70
2021/05/15 04:13:49;;;;;;;10.27;7.55;;;384.20;2252.80;;;;;;5094505;28;20541;-70
2021/05/15 04:16:48;;;;;;;13.55;7.10;;;384.10;2278.40;;;;;;5094771;28;20024;-70
2021/05/15 04:19:04;;;;;;;11.43;7.75;;;384.20;2252.80;;;;;;5094454;28;20059;-70
2021/05/15 04:21:29;;;;;;;13.48;7.68;;;384.20;2252.80;;;;;;5094631;28;20051;-70
2021/05/15 04:23:55;;;;;;;9.73;6.88;;;384.20;2252.80;;;;;;5094548;28;20070;-70
2021/05/15 04:26:21;;;;;;;9.48;6.70;;;384.10;2252.80;;;;;;5094770;28;20052;-70
2021/05/15 04:28:47;;;;;;;11.77;6.40;;;384.10;2252.80;;;;;;5094798;28;20469;-70
2021/05/15 04:31:13;;;;;;;10.38;7.10;;;384.10;2252.80;;;;;;5094359;28;20016;-70
2021/05/15 04:33:39;;;;;;;11.07;7.70;;;384.10;2278.40;;;;;;5094563;28;20028;-70
2021/05/15 04:36:05;;;;;;;28.10;16.17;;;384.10;2278.40;;;;;;5094598;28;20016;-70
2021/05/15 04:38:31;;;;;;;26.77;16.58;;;384.20;2278.40;;;;;;5094158;28;20035;-70
2021/05/15 04:40:57;;;;;;;20.38;11.77;;;384.20;2278.40;;;;;;5094219;28;20396;-70
2021/05/15 04:43:23;;;;;;;18.63;10.40;;;384.30;2278.40;;;;;;5094470;28;20032;-70
2021/05/15 04:45:48;;;;;;;21.23;11.15;;;384.40;2252.80;;;;;;5094150;28;20039;-69
2021/05/15 04:48:14;;;;;;;22.83;14.23;;;384.40;2252.80;;;;;;5093987;28;20031;-69
2021/05/15 04:50:40;;;;;;;14.02;9.73;;;384.50;2278.40;;;;;;5094158;28;20024;-69
2021/05/15 04:53:06;;;;;;;13.25;8.68;;;384.50;2252.80;;;;;;5094358;28;20444;-69
2021/05/15 04:55:32;;;;;;;9.68;8.57;;;384.50;2252.80;;;;;;5094089;28;20055;-69
2021/05/15 04:58:00;;;;;;;16.48;8.95;;;384.60;2252.80;;;;;;5093914;28;20122;-70
2021/05/15 05:00:27;;;;;;;12.00;8.75;;;384.60;2252.80;;;;;;5093567;28;20061;-70
2021/05/15 05:02:52;;;;;;;11.55;7.30;;;384.60;2252.80;;;;;;5093808;28;20107;-70
2021/05/15 05:05:19;;;;;;;17.45;7.78;;;384.70;2252.80;;;;;;5093198;28;20107;-70
2021/05/15 05:07:45;;;;;;;9.90;8.55;;;384.80;2252.80;;;;;;5092643;28;20024;-70
2021/05/15 05:10:12;;;;;;;9.95;7.00;;;384.90;2252.80;;;;;;5093743;28;20034;-70
2021/05/15 05:12:37;;;;;;;10.80;7.65;;;384.90;2252.80;;;;;;5093328;28;20114;-70
2021/05/15 05:15:05;;;;;;;10.02;7.32;;;409.60;2252.80;;;;;;5093145;28;20540;-70
2021/05/15 05:17:30;;;;;;;9.88;7.50;;;409.60;2278.40;;;;;;5093205;28;20028;-70
2021/05/15 05:19:56;;;;;;;9.00;6.45;;;409.60;2278.40;;;;;;5092138;28;20461;-70
2021/05/15 05:22:22;;;;;;;7.55;6.22;;;409.70;2252.80;;;;;;5090940;28;20076;-70
2021/05/15 05:24:48;;;;;;;7.40;5.30;;;409.80;2252.80;;;;;;5092202;28;20024;-69
2021/05/15 05:27:14;;;;;;;5.22;4.57;;;409.80;2252.80;;;;;;5092155;28;20507;-69
2021/05/15 05:29:40;;;;;;;7.43;4.68;;;409.80;2252.80;;;;;;5090882;28;20446;-69
2021/05/15 05:32:10;;;;;;;8.30;5.30;;;409.80;2252.80;;;;;;5092070;28;20540;-69
2021/05/15 05:34:39;;;;;;;7.00;5.22;;;409.90;2252.80;;;;;;5092282;28;20459;-69
2021/05/15 05:37:05;;;;;;;8.68;4.68;;;409.90;2252.80;;;;;;5090323;28;20032;-73
2021/05/15 05:39:32;;;;;;;6.28;4.55;;;410.00;2252.80;;;;;;5091634;28;20126;-69
2021/05/15 05:41:59;;;;;;;5.35;4.72;;;410.00;2252.80;;;;;;5091427;28;20035;-69
2021/05/15 05:44:25;;;;;;;6.15;4.93;;;410.00;2252.80;;;;;;5091802;28;20025;-69
2021/05/15 05:46:51;;;;;;;5.85;4.53;;;410.10;2252.80;;;;;;5091306;28;20027;-69
2021/05/15 05:49:17;;;;;;;5.75;4.35;;;410.10;2278.40;;;;;;5091374;28;20099;-69
2021/05/15 05:51:42;;;;;;;10.48;4.25;;;410.10;2252.80;;;;;;5091616;28;20020;-69
2021/05/15 05:54:08;;;;;;;11.57;4.63;;;410.30;2227.20;;;;;;5090199;28;20059;-68
2021/05/15 05:56:35;;;;;;;9.13;3.85;;;410.30;2227.20;;;;;;5091625;28;20020;-68
2021/05/15 05:59:00;;;;;;;3.65;3.25;;;410.50;2227.20;;;;;;5091554;28;20369;-69
2021/05/15 06:01:26;;;;;;;20.65;3.83;;;410.50;2176.00;;;;;;5090532;28;20031;-68
2021/05/15 06:03:52;;;;;;;5.00;2.83;;;435.20;2201.60;;;;;;5091819;28;20031;-71
2021/05/15 06:06:18;;;;;;;9.23;3.50;;;435.20;2150.40;;;;;;5091144;28;20024;-72
2021/05/15 06:08:44;;;;;;;3.35;2.60;;;435.30;2176.00;;;;;;5091510;28;20028;-70
2021/05/15 06:11:10;;;;;;;5.95;2.97;;;435.30;2150.40;;;;;;5091196;28;20017;-69
2021/05/15 06:13:36;;;;;;;4.30;2.78;;;435.40;2150.40;;;;;;5090148;28;20040;-69
2021/05/15 06:16:02;;;;;;;4.82;3.30;;;435.50;2150.40;;;;;;5089816;28;20095;-69
2021/05/15 06:18:27;;;;;;;6.35;3.13;;;435.60;2150.40;;;;;;5094655;28;20028;-68
2021/05/15 06:20:54;;;;;;;8.52;3.53;;;;;;;;;;5094044;28;20084;-68
2021/05/15 06:23:20;;;;;;;7.03;3.50;;;;;;;;;;5094090;28;20036;-70
2021/05/15 06:25:46;;;;;;;4.15;2.92;;;436.00;2099.20;;;;;;5094541;28;20095;-70
2021/05/15 06:28:13;;;;;;;11.88;4.28;;;435.90;2099.20;;;;;;5094528;28;20495;-70
2021/05/15 06:30:39;;;;;;;9.55;3.92;;;436.00;2124.80;;;;;;5093417;28;20107;-70
2021/05/15 06:33:06;;;;;;;7.10;3.50;;;;;;;;;;5093338;28;20158;-69
2021/05/15 06:35:33;;;;;;;4.65;3.58;;;461.00;2099.20;;;;;;5093312;28;20054;-69
2021/05/15 06:37:59;;;;;;;5.78;4.25;;;460.90;2176.00;;;;;;5093193;28;20039;-69
2021/05/15 06:40:25;;;;;;;7.18;3.30;;;461.30;2073.60;;;;;;5094160;28;20023;-70
2021/05/15 06:42:51;;;;;;;5.35;3.65;;;461.20;2048.00;;;;;;5094919;28;20024;-70
2021/05/15 06:45:17;;;;;;;6.70;3.63;;;461.40;2048.00;;;;;;5094207;28;20024;-70
2021/05/15 06:47:43;;;;;;;5.82;3.65;;;461.50;2048.00;;;;;;5093799;28;20510;-70
2021/05/15 06:50:09;;;;;;;4.63;3.17;;;461.60;2048.00;;;;;;5094813;28;20034;-69
2021/05/15 06:52:36;;;;;;;9.45;3.60;;;461.60;2022.40;;;;;;5095173;28;20028;-70
2021/05/15 06:55:03;;;;;;;5.72;3.72;;;486.40;2048.00;;;;;;5094350;28;20028;-70
2021/05/15 06:57:29;;;;;;;7.93;4.20;;;486.40;2022.40;;;;;;5092521;28;20066;-70
2021/05/15 06:59:55;;;;;;;5.00;3.75;;;486.50;2048.00;;;;;;5092180;28;20016;-69
2021/05/15 07:02:21;;;;;;;5.57;3.75;;;486.60;2048.00;;;;;;5093528;28;20027;-70
2021/05/15 07:04:47;;;;;;;6.53;3.67;;;486.70;1996.80;;;;;;5094599;28;20020;-70
2021/05/15 07:07:13;;;;;;;7.00;3.85;;;486.70;1996.80;;;;;;5095420;28;20020;-69
2021/05/15 07:09:38;;;;;;;4.30;3.08;;;486.80;1996.80;;;;;;5094817;28;20032;-69
2021/05/15 07:12:05;;;;;;;4.70;3.83;;;486.80;1945.60;;;;;;5095005;28;20516;-69
2021/05/15 07:14:31;;;;;;;5.13;3.42;;;486.90;1996.80;;;;;;5093733;28;20050;-70
2021/05/15 07:16:57;;;;;;;5.28;3.47;;;487.00;1971.20;;;;;;5095044;28;20107;-70
2021/05/15 07:19:22;;;;;;;5.97;3.72;;;487.10;1971.20;;;;;;5095672;28;20032;-69
2021/05/15 07:21:48;;;;;;;5.60;4.20;;;487.10;1971.20;;;;;;5095593;28;20093;-69
2021/05/15 07:24:14;;;;;;;3.72;3.08;;;487.10;1971.20;;;;;;5095590;28;20024;-68
2021/05/15 07:26:40;;;;;;;7.22;3.22;;;487.20;1920.00;;;;;;5095700;28;20059;-68
2021/05/15 07:29:06;;;;;;;3.40;2.70;;;487.30;1920.00;;;;;;5094853;28;20016;-68
2021/05/15 07:31:32;;;;;;;5.72;2.70;;;512.00;1894.40;;;;;;5095451;28;20032;-68
2021/05/15 07:33:59;;;;;;;6.05;3.60;;;512.10;1894.40;;;;;;5095666;28;20020;-69
2021/05/15 07:36:25;;;;;;;4.55;3.80;;;512.10;1894.40;;;;;;5094734;28;20407;-71
2021/05/15 07:38:51;;;;;;;8.05;5.85;;;512.20;1920.00;;;;;;5095153;28;20023;-72
2021/05/15 07:41:17;;;;;;;9.27;3.67;;;512.20;1920.00;;;;;;5095116;28;20032;-73
2021/05/15 07:43:43;;;;;;;5.15;4.30;;;512.30;1868.80;;;;;;5094345;28;20055;-74
2021/05/15 07:46:10;;;;;;;6.60;4.18;;;512.30;1894.40;;;;;;5095085;28;20107;-73
2021/05/15 07:48:39;;;;;;;6.18;5.03;;;512.30;1920.00;;;;;;5094605;28;20024;-76
2021/05/15 07:51:08;;;;;;;11.80;4.40;;;512.30;1894.40;;;;;;5093434;28;20016;-71
2021/05/15 07:53:35;;;;;;;9.35;6.93;;;512.30;1945.60;;;;;;5093063;28;20023;-73
2021/05/15 07:56:01;;;;;;;10.30;5.97;;;512.30;1996.80;;;;;;5093237;28;20027;-70
2021/05/15 07:58:27;;;;;;;9.73;6.38;;;512.20;1920.00;;;;;;5093107;28;20064;-71
2021/05/15 08:00:53;;;;;;;14.05;7.50;;;512.10;1894.40;;;;;;5093750;28;20176;-71
2021/05/15 08:03:19;;;;;;;10.55;6.70;;;512.00;1920.00;;;;;;5093571;28;20564;-71
2021/05/15 08:05:44;;;;;;;9.77;6.20;;;512.00;1945.60;;;;;;5093169;28;20024;-70
2021/05/15 08:08:10;;;;;;;7.65;6.03;;;512.10;1920.00;;;;;;5092862;28;20050;-70
2021/05/15 08:10:36;;;;;;;7.25;6.45;;;512.10;1920.00;;;;;;5092856;28;20020;-70
2021/05/15 08:13:02;;;;;;;8.52;6.70;;;512.10;1945.60;;;;;;5092644;28;20073;-70
2021/05/15 08:15:29;;;;;;;9.63;5.85;;;512.10;1945.60;;;;;;5092749;28;20024;-70
2021/05/15 08:17:55;;;;;;;7.72;6.10;;;512.10;1868.80;;;;;;5092659;28;20032;-70
2021/05/15 08:20:22;;;;;;;6.90;5.70;;;512.10;1894.40;;;;;;5093202;28;20059;-70
2021/05/15 08:22:49;;;;;;;7.40;5.90;;;512.10;1894.40;;;;;;5094925;28;20111;-71
2021/05/15 08:25:16;;;;;;;7.50;5.68;;;512.10;1920.00;;;;;;5094587;28;20023;-70
2021/05/15 08:27:44;;;;;;;7.20;4.88;;;512.10;1920.00;;;;;;5093772;28;20030;-70
2021/05/15 08:30:15;;;;;;;5.80;5.15;;;512.10;1868.80;;;;;;5094349;28;20020;-70
2021/05/15 08:32:42;;;;;;;6.82;4.93;;;512.10;1868.80;;;;;;5094659;28;20028;-71
2021/05/15 08:35:09;;;;;;;8.43;4.60;;;512.10;1843.20;;;;;;5094328;28;20024;-70
2021/05/15 08:37:35;;;;;;;7.10;5.25;;;512.00;1843.20;;;;;;5094133;28;20389;-70
2021/05/15 08:40:02;;;;;;;9.90;5.80;;;512.00;1868.80;;;;;;5092919;28;20020;-70
2021/05/15 08:42:31;;;;;;;6.82;5.93;;;512.00;1868.80;;;;;;5093154;28;20440;-70
2021/05/15 08:44:58;;;;;;;7.85;4.90;;;512.00;1868.80;;;;;;5073716;28;20013;-70
2021/05/15 08:47:24;;;;;;;9.82;5.40;;;512.10;1868.80;;;;;;5073748;28;20150;-71
2021/05/15 08:49:52;;;;;;;6.75;5.22;;;512.10;1817.60;;;;;;5073706;28;20100;-70
2021/05/15 08:52:19;;;;;;;7.35;6.20;;;512.20;1817.60;;;;;;5073691;28;20081;-70
2021/05/15 08:54:46;;;;;;;7.38;5.97;;;512.30;1843.20;;;;;;5089324;28;20031;-71
2021/05/15 08:57:12;;;;;;;7.68;6.22;;;512.30;1792.00;;;;;;5074129;28;20151;-70
2021/05/15 08:59:37;;;;;;;7.78;5.93;;;512.30;1817.60;;;;;;5089326;28;20393;-70
2021/05/15 09:02:03;;;;;;;10.35;4.93;;;512.30;1792.00;;;;;;5073587;28;20017;-70
2021/05/15 09:04:29;;;;;;;7.43;6.60;;;512.40;1843.20;;;;;;5073823;28;20035;-70
2021/05/15 09:06:55;;;;;;;7.90;6.80;;;512.50;1817.60;;;;;;5073613;28;20017;-70
2021/05/15 09:09:21;;;;;;;8.73;7.80;;;512.50;1817.60;;;;;;5073500;28;20469;-71
2021/05/15 09:11:47;;;;;;;14.43;7.13;;;512.60;1817.60;;;;;;5073836;28;20035;-70
2021/05/15 09:14:19;;;;;;;10.68;7.13;;;512.70;1817.60;;;;;;5073345;28;20074;-71
2021/05/15 09:16:56;;;;;;;13.55;6.72;;;512.60;1843.20;;;;;;5073355;28;20029;-71
2021/05/15 09:19:27;;;;;;;9.57;8.38;;;512.60;1817.60;;;;;;5084195;28;20488;-71
2021/05/15 09:21:59;;;;;;;9.15;8.25;;;512.50;1843.20;;;;;;5092490;28;20551;-71
2021/05/15 09:24:40;;;;;;;9.98;7.93;;;512.60;1868.80;;;;;;5092208;28;20055;-71
2021/05/15 09:27:08;;;;;;;8.48;7.57;;;512.60;1817.60;;;;;;5090793;28;20016;-71
2021/05/15 09:29:44;;;;;;;11.73;6.13;;;512.80;1817.60;;;;;;5092121;28;20020;-71
2021/05/15 09:32:11;;;;;;;17.50;7.80;;;512.80;1792.00;;;;;;5092519;28;20051;-71
2021/05/15 09:34:48;;;;;;;10.27;7.80;;;512.90;1792.00;;;;;;5088269;28;20377;-70
2021/05/15 09:37:39;;;;;;;8.07;6.68;;;512.80;1766.40;;;;;;5091981;28;20096;-72
2021/05/15 09:40:15;;;;;;;10.18;6.53;;;512.90;1715.20;;;;;;5077861;28;20024;-71
2021/05/15 09:42:50;;;;;;;9.98;6.43;;;512.90;1715.20;;;;;;5090266;28;20035;-71
2021/05/15 09:45:30;;;;;;;7.85;6.60;;;512.90;1740.80;;;;;;5089384;28;20056;-71
2021/05/15 09:48:02;;;;;;;13.13;6.05;;;512.90;1689.60;;;;;;5093410;28;20021;-69
2021/05/15 09:50:31;;;;;;;10.82;7.80;;;512.90;1715.20;;;;;;5093663;28;20023;-70
2021/05/15 09:53:12;;;;;;;11.18;7.53;;;512.90;1740.80;;;;;;5094828;28;20403;-70
2021/05/15 09:55:40;;;;;;;10.38;8.65;;;512.90;1740.80;;;;;;5097601;28;20055;-71
2021/05/15 09:58:08;;;;;;;11.30;9.38;;;512.90;1740.80;;;;;;5097171;28;20384;-70
2021/05/15 10:00:41;;;;;;;10.10;9.18;;;512.90;1792.00;;;;;;5094922;28;20020;-70
2021/05/15 10:03:28;;;;;;;20.10;6.65;;;512.90;1792.00;;;;;;5096868;28;20417;-70
2021/05/15 10:06:15;;;;;;;15.80;8.88;;;537.60;1792.00;;;;;;5095295;28;20081;-70
2021/05/15 10:08:43;;;;;;;25.15;7.05;;;537.70;1817.60;;;;;;5097247;28;20045;-69
2021/05/15 10:11:09;;;;;;;9.88;6.88;;;537.80;1792.00;;;;;;5097184;28;20016;-71
2021/05/15 10:13:38;;;;;;;15.35;5.47;;;537.90;1715.20;;;;;;5096844;28;20096;-73
2021/05/15 10:16:05;;;;;;;22.38;6.85;;;538.00;1715.20;;;;;;5097143;28;20020;-70
2021/05/15 10:18:32;;;;;;;10.93;7.22;;;538.10;1740.80;;;;;;5096924;28;20051;-74
2021/05/15 10:20:59;;;;;;;11.55;6.68;;;538.10;1715.20;;;;;;5097493;28;20024;-73
2021/05/15 10:23:45;;;;;;;12.55;7.55;;;538.10;1740.80;;;;;;5097743;28;20039;-72
2021/05/15 10:26:21;;;;;;;9.50;8.57;;;538.10;1766.40;;;;;;5096280;28;20086;-68
2021/05/15 10:29:05;;;;;;;24.00;17.75;;;538.10;1766.40;;;;;;5096839;28;20444;-70
2021/05/15 10:31:44;;;;;;;39.47;31.52;;;538.00;1766.40;;;;;;5097109;28;20020;-71
2021/05/15 10:34:11;;;;;;;31.50;24.50;;;538.10;1766.40;;;;;;5096781;28;20059;-70
2021/05/15 10:36:48;;;;;;;11.88;7.25;;;538.00;1792.00;;;;;;5096641;28;20051;-72
2021/05/15 10:39:31;;;;;;;10.13;6.68;;;538.00;1740.80;;;;;;5096410;28;20032;-69
2021/05/15 10:41:59;;;;;;;8.85;7.00;;;538.10;1766.40;;;;;;5094279;28;20020;-73
2021/05/15 10:44:37;;;;;;;7.82;7.00;;;538.10;1766.40;;;;;;5097049;28;20020;-74
2021/05/15 10:47:03;;;;;;;9.23;5.97;;;538.20;1664.00;;;;;;5096516;28;20028;-73
2021/05/15 10:49:30;;;;;;;11.80;7.97;;;538.20;1740.80;;;;;;5096763;28;20096;-71
2021/05/15 10:52:17;;;;;;;11.55;7.25;;;538.30;1689.60;;;;;;5096428;28;20061;-68
2021/05/15 10:54:51;;;;;;;10.13;7.90;;;538.30;1689.60;;;;;;5096557;28;20411;-71
2021/05/15 10:57:23;;;;;;;;;;;538.40;1664.00;;;;;;5096477;28;20035;-67
2021/05/15 10:59:56;;;;;;;21.67;15.07;;;538.20;1689.60;;;;;;5095857;28;20011;-68
2021/05/15 11:02:30;;;;;;;33.72;21.70;;;538.10;1689.60;;;;;;5095479;28;20543;-71
2021/05/15 11:04:56;;;;;;;40.42;24.67;;;538.10;1689.60;;;;;;5094755;28;20089;-70
2021/05/15 11:07:34;;;;;;;15.25;6.85;;;538.10;1638.40;;;;;;5096033;28;20016;-68
2021/05/15 11:10:06;;;;;;;18.48;4.50;;;538.10;1664.00;;;;;;5096292;28;20032;-70
2021/05/15 11:12:52;;;;;;;16.08;4.72;;;538.10;1664.00;;;;;;5095545;28;20027;-70
2021/05/15 11:15:27;;;;;;;40.55;7.53;;;538.00;1689.60;;;;;;5095019;28;20040;-70
2021/05/15 11:18:07;;;;;;;26.20;13.27;;;538.00;1715.20;;;;;;5095987;28;20028;-69
2021/05/15 11:20:46;;;;;;;16.85;12.18;;;538.10;1664.00;;;;;;5095828;28;20027;-72
2021/05/15 11:23:23;;;;;;;18.48;8.90;;;538.10;1664.00;;;;;;5096131;28;20047;-68
2021/05/15 11:25:55;;;;;;;32.83;22.67;;;538.10;1664.00;;;;;;5095788;28;20020;-70
2021/05/15 11:28:23;;;;;;;13.95;11.68;;;538.20;1664.00;;;;;;5096009;28;20036;-70
2021/05/15 11:30:49;;;;;;;80.97;62.38;;;538.40;1689.60;;;;;;5095080;28;20031;-74
2021/05/15 11:33:18;;;;;;;66.20;52.92;;;538.50;1689.60;;;;;;5095336;28;20024;-72
2021/05/15 11:35:49;;;;;;;63.22;50.88;;;563.20;1689.60;;;;;;5095346;28;20031;-72
2021/05/15 11:38:21;;;;;;;12.98;9.32;;;563.20;1689.60;;;;;;5094923;28;20392;-73
2021/05/15 11:40:46;;;;;;;53.40;39.55;;;563.20;1664.00;;;;;;5095307;28;20027;-70
2021/05/15 11:43:29;;;;;;;146.13;123.72;;;538.50;1612.80;;;;;;5095344;28;20036;-69
2021/05/15 11:45:56;;;;;;;39.95;35.10;;;538.40;1664.00;;;;;;5095702;28;20024;-69
2021/05/15 11:48:30;;;;;;;26.65;17.25;;;538.40;1664.00;;;;;;5094984;28;20024;-76
2021/05/15 11:51:10;;;;;;;11.77;6.60;;;538.40;1612.80;;;;;;5094526;28;20557;-71
2021/05/15 11:53:36;;;;;;;56.47;40.42;;;538.40;1587.20;;;;;;5094532;28;20073;-71
2021/05/15 11:56:10;;;;;;;32.33;25.17;;;538.40;1638.40;;;;;;5094407;28;20016;-73
2021/05/15 11:58:59;;;;;;;25.90;18.50;;;538.50;1638.40;;;;;;5093967;28;20488;-70
2021/05/15 12:01:35;;;;;;;18.60;11.68;;;538.50;1638.40;;;;;;5093541;28;20062;-67
2021/05/15 12:04:25;;;;;;;13.07;6.03;;;538.50;1664.00;;;;;;5093112;28;20043;-72
2021/05/15 12:07:06;;;;;;;10.77;6.50;;;538.50;1638.40;;;;;;5093319;28;20028;-73
2021/05/15 12:09:32;;;;;;;11.77;6.80;;;538.50;1561.60;;;;;;5094501;28;20069;-74
2021/05/15 12:12:02;;;;;;;15.18;4.88;;;538.50;1587.20;;;;;;5094229;28;20024;-73
2021/05/15 12:14:30;;;;;;;8.50;5.45;;;538.50;1587.20;;;;;;5093054;28;20064;-70
2021/05/15 12:17:06;;;;;;;18.50;6.20;;;563.20;1664.00;;;;;;5093014;28;20028;-73
2021/05/15 12:19:34;;;;;;;9.13;5.50;;;563.20;1689.60;;;;;;5092576;28;20044;-69